createdAt,value
2023-05-21T00:01:42.364Z,59.37
2023-05-21T00:04:09.736Z,59.36
2023-05-21T00:06:36.910Z,59.34
2023-05-21T00:09:05.888Z,59.40
2023-05-21T00:11:32.806Z,59.42
2023-05-21T00:13:59.658Z,59.47
2023-05-21T00:16:26.512Z,59.49
2023-05-21T00:18:54.680Z,59.46
2023-05-21T00:21:26.352Z,59.52
2023-05-21T00:23:54.369Z,59.63
2023-05-21T00:26:21.711Z,59.68
2023-05-21T00:28:48.535Z,59.81
2023-05-21T00:31:16.098Z,59.89
2023-05-21T00:33:43.255Z,59.87
2023-05-21T00:36:14.397Z,59.85
2023-05-21T00:38:45.784Z,59.91
2023-05-21T00:41:13.387Z,60.01
2023-05-21T00:43:42.085Z,59.95
2023-05-21T00:46:12.171Z,60.02
2023-05-21T00:48:39.773Z,60.09
2023-05-21T00:51:07.086Z,60.05
2023-05-21T00:53:37.378Z,60.15
2023-05-21T00:56:04.464Z,60.09
2023-05-21T00:58:33.496Z,60.13
2023-05-21T01:01:03.643Z,60.26
2023-05-21T01:03:30.888Z,60.33
2023-05-21T01:06:00.157Z,60.39
2023-05-21T01:08:28.806Z,60.39
2023-05-21T01:10:56.684Z,60.38
2023-05-21T01:13:26.206Z,60.42
2023-05-21T01:15:54.438Z,60.43
2023-05-21T01:18:22.082Z,60.47
2023-05-21T01:20:49.283Z,60.54
2023-05-21T01:23:20.103Z,60.56
2023-05-21T01:25:47.650Z,60.56
2023-05-21T01:28:14.950Z,60.60
2023-05-21T01:30:43.557Z,60.60
2023-05-21T01:33:23.409Z,60.57
2023-05-21T01:36:24.233Z,60.48
2023-05-21T01:39:02.212Z,60.56
2023-05-21T01:41:34.816Z,60.69
2023-05-21T01:44:03.696Z,60.75
2023-05-21T01:46:33.451Z,60.77
2023-05-21T01:49:00.749Z,60.75
2023-05-21T01:51:28.066Z,60.76
2023-05-21T01:53:54.828Z,60.73
2023-05-21T01:56:25.951Z,60.68
2023-05-21T01:58:52.945Z,60.71
2023-05-21T02:01:20.378Z,60.82
2023-05-21T02:03:47.281Z,60.77
2023-05-21T02:06:14.255Z,60.87
2023-05-21T02:08:41.014Z,60.89
2023-05-21T02:11:07.830Z,60.95
2023-05-21T02:13:34.617Z,60.94
2023-05-21T02:16:01.632Z,60.98
2023-05-21T02:18:29.379Z,61.03
2023-05-21T02:20:56.395Z,61.13
2023-05-21T02:23:23.131Z,61.02
2023-05-21T02:25:49.986Z,61.12
2023-05-21T02:28:16.733Z,61.22
2023-05-21T02:30:43.484Z,61.18
2023-05-21T02:33:14.413Z,61.30
2023-05-21T02:35:41.804Z,61.35
2023-05-21T02:38:09.286Z,61.35
2023-05-21T02:40:36.085Z,61.28
2023-05-21T02:43:02.852Z,61.36
2023-05-21T02:45:29.847Z,61.52
2023-05-21T02:47:56.674Z,61.50
2023-05-21T02:50:23.700Z,61.53
2023-05-21T02:52:50.591Z,61.57
2023-05-21T02:55:17.377Z,61.56
2023-05-21T02:57:44.170Z,61.57
2023-05-21T03:00:11.800Z,61.62
2023-05-21T03:02:38.613Z,61.60
2023-05-21T03:05:06.135Z,61.51
2023-05-21T03:07:33.248Z,61.69
2023-05-21T03:10:00.108Z,61.63
2023-05-21T03:12:26.948Z,61.70
2023-05-21T03:14:53.721Z,61.80
2023-05-21T03:17:20.683Z,61.78
2023-05-21T03:19:49.233Z,61.74
2023-05-21T03:22:16.085Z,61.77
2023-05-21T03:24:42.820Z,61.79
2023-05-21T03:27:09.659Z,61.87
2023-05-21T03:29:36.520Z,61.95
2023-05-21T03:32:03.584Z,61.95
2023-05-21T03:34:30.357Z,62.03
2023-05-21T03:36:57.171Z,62.04
2023-05-21T03:39:23.993Z,62.00
2023-05-21T03:41:50.890Z,62.05
2023-05-21T03:44:17.723Z,62.07
2023-05-21T03:46:45.699Z,62.03
2023-05-21T03:49:14.302Z,62.07
2023-05-21T03:51:41.081Z,61.97
2023-05-21T03:54:07.859Z,62.00
2023-05-21T03:56:34.769Z,62.07
2023-05-21T03:59:01.776Z,62.15
2023-05-21T04:01:28.768Z,62.28
2023-05-21T04:03:55.935Z,62.30
2023-05-21T04:06:22.867Z,62.32
2023-05-21T04:08:49.974Z,62.19
2023-05-21T04:11:16.925Z,62.13
2023-05-21T04:13:43.753Z,62.12
2023-05-21T04:16:10.957Z,62.00
2023-05-21T04:18:37.841Z,61.98
2023-05-21T04:21:04.952Z,61.96
2023-05-21T04:23:31.794Z,62.00
2023-05-21T04:25:58.585Z,61.94
2023-05-21T04:28:28.942Z,61.91
2023-05-21T04:30:56.622Z,61.89
2023-05-21T04:33:24.569Z,61.88
2023-05-21T04:35:52.021Z,61.72
2023-05-21T04:38:19.857Z,61.67
2023-05-21T04:40:53.560Z,61.52
2023-05-21T04:43:26.095Z,61.43
2023-05-21T04:45:55.077Z,61.36
2023-05-21T04:48:27.150Z,61.29
2023-05-21T04:50:54.370Z,61.30
2023-05-21T04:53:21.974Z,61.26
2023-05-21T04:55:49.241Z,61.22
2023-05-21T04:58:18.374Z,61.28
2023-05-21T05:00:51.098Z,61.17
2023-05-21T05:03:18.225Z,61.04
2023-05-21T05:05:45.197Z,60.81
2023-05-21T05:08:13.957Z,60.60
2023-05-21T05:10:42.473Z,60.30
2023-05-21T05:13:09.305Z,60.05
2023-05-21T05:15:36.952Z,59.94
2023-05-21T05:18:04.161Z,59.79
2023-05-21T05:20:31.232Z,59.64
2023-05-21T05:22:57.974Z,59.51
2023-05-21T05:25:24.939Z,59.41
2023-05-21T05:27:51.688Z,59.31
2023-05-21T05:30:18.510Z,59.19
2023-05-21T05:32:45.753Z,59.10
2023-05-21T05:35:12.897Z,59.03
2023-05-21T05:37:39.721Z,58.97
2023-05-21T05:40:08.821Z,58.92
2023-05-21T05:42:35.682Z,58.88
2023-05-21T05:45:02.471Z,58.82
2023-05-21T05:47:29.745Z,58.84
2023-05-21T05:49:56.590Z,58.81
2023-05-21T05:52:23.361Z,58.79
2023-05-21T05:54:50.148Z,58.80
2023-05-21T05:57:16.890Z,58.74
2023-05-21T05:59:43.669Z,58.73
2023-05-21T06:02:10.753Z,58.67
2023-05-21T06:04:37.606Z,58.65
2023-05-21T06:07:04.574Z,58.62
2023-05-21T06:09:31.344Z,58.61
2023-05-21T06:11:58.239Z,58.61
2023-05-21T06:14:25.007Z,58.54
2023-05-21T06:16:51.800Z,58.51
2023-05-21T06:19:19.040Z,58.39
2023-05-21T06:21:45.902Z,58.39
2023-05-21T06:24:12.673Z,58.28
2023-05-21T06:26:39.438Z,58.22
2023-05-21T06:29:06.439Z,58.11
2023-05-21T06:31:33.413Z,58.07
2023-05-21T06:34:00.835Z,58.03
2023-05-21T06:36:30.123Z,57.85
2023-05-21T06:38:57.312Z,57.87
2023-05-21T06:41:24.628Z,57.78
2023-05-21T06:43:51.629Z,57.71
2023-05-21T06:46:18.657Z,57.61
2023-05-21T06:48:46.492Z,57.49
2023-05-21T06:51:13.358Z,57.45
2023-05-21T06:53:40.179Z,57.43
2023-05-21T06:56:07.318Z,57.34
2023-05-21T06:58:34.222Z,57.27
2023-05-21T07:01:01.529Z,57.17
2023-05-21T07:03:28.532Z,57.15
2023-05-21T07:05:57.466Z,57.12
2023-05-21T07:08:24.238Z,57.05
2023-05-21T07:10:51.206Z,57.01
2023-05-21T07:13:18.018Z,56.93
2023-05-21T07:15:44.773Z,56.89
2023-05-21T07:18:12.160Z,56.82
2023-05-21T07:20:39.090Z,56.73
2023-05-21T07:23:06.190Z,56.64
2023-05-21T07:25:33.033Z,56.62
2023-05-21T07:27:59.848Z,56.49
2023-05-21T07:30:26.728Z,56.44
2023-05-21T07:32:53.525Z,56.39
2023-05-21T07:35:20.602Z,56.28
2023-05-21T07:37:48.119Z,56.15
2023-05-21T07:40:15.011Z,56.02
2023-05-21T07:42:41.850Z,55.92
2023-05-21T07:45:09.025Z,55.82
2023-05-21T07:47:35.963Z,55.72
2023-05-21T07:50:02.956Z,55.57
2023-05-21T07:52:29.823Z,55.51
2023-05-21T07:54:56.632Z,55.44
2023-05-21T07:57:23.415Z,55.37
2023-05-21T07:59:50.177Z,55.31
2023-05-21T08:02:17.181Z,55.24
2023-05-21T08:04:44.594Z,55.09
2023-05-21T08:07:12.987Z,55.00
2023-05-21T08:09:39.811Z,55.04
2023-05-21T08:12:07.232Z,54.92
2023-05-21T08:14:34.036Z,54.86
2023-05-21T08:17:00.824Z,54.75
2023-05-21T08:19:27.774Z,54.67
2023-05-21T08:21:54.629Z,54.64
2023-05-21T08:24:21.374Z,54.59
2023-05-21T08:26:49.734Z,54.55
2023-05-21T08:29:16.853Z,54.52
2023-05-21T08:31:43.726Z,54.47
2023-05-21T08:34:10.545Z,54.49
2023-05-21T08:36:38.363Z,54.42
2023-05-21T08:39:05.143Z,54.35
2023-05-21T08:41:35.404Z,54.20
2023-05-21T08:44:03.149Z,54.11
2023-05-21T08:46:33.279Z,54.07
2023-05-21T08:49:02.897Z,54.07
2023-05-21T08:51:31.154Z,53.94
2023-05-21T08:53:59.832Z,53.89
2023-05-21T08:56:27.376Z,53.87
2023-05-21T08:58:54.142Z,53.73
2023-05-21T09:01:25.585Z,53.60
2023-05-21T09:04:05.043Z,53.57
2023-05-21T09:06:40.987Z,53.52
2023-05-21T09:09:18.336Z,53.42
2023-05-21T09:11:46.474Z,53.32
2023-05-21T09:14:14.900Z,53.26
2023-05-21T09:16:42.197Z,53.16
2023-05-21T09:19:09.009Z,53.07
2023-05-21T09:21:35.843Z,53.09
2023-05-21T09:24:02.789Z,53.01
2023-05-21T09:26:29.612Z,52.91
2023-05-21T09:28:57.890Z,52.76
2023-05-21T09:31:25.921Z,52.62
2023-05-21T09:33:53.096Z,52.48
2023-05-21T09:36:20.724Z,52.43
2023-05-21T09:38:52.072Z,52.48
2023-05-21T09:41:32.158Z,52.42
2023-05-21T09:44:01.067Z,52.21
2023-05-21T09:46:28.094Z,52.12
2023-05-21T09:48:54.846Z,52.02
2023-05-21T09:51:21.800Z,51.92
2023-05-21T09:53:58.143Z,51.81
2023-05-21T09:56:32.375Z,51.76
2023-05-21T09:59:04.226Z,51.73
2023-05-21T10:01:33.949Z,51.63
2023-05-21T10:04:04.690Z,51.51
2023-05-21T10:06:33.775Z,51.53
2023-05-21T10:09:05.737Z,51.38
2023-05-21T10:11:34.690Z,51.17
2023-05-21T10:14:06.277Z,51.12
2023-05-21T10:16:34.197Z,51.04
2023-05-21T10:19:01.128Z,50.98
2023-05-21T10:21:28.268Z,50.84
2023-05-21T10:23:58.367Z,50.77
2023-05-21T10:26:26.509Z,50.73
2023-05-21T10:28:56.368Z,50.68
2023-05-21T10:31:23.661Z,50.61
2023-05-21T10:33:51.184Z,50.47
2023-05-21T10:36:18.823Z,50.28
2023-05-21T10:38:47.151Z,50.27
2023-05-21T10:41:17.296Z,50.04
2023-05-21T10:44:02.827Z,49.78
2023-05-21T10:46:43.342Z,49.84
2023-05-21T10:49:25.551Z,49.64
2023-05-21T10:52:04.265Z,49.49
2023-05-21T10:54:46.444Z,49.40
2023-05-21T10:57:46.802Z,49.27
2023-05-21T11:00:16.893Z,49.18
2023-05-21T11:02:45.784Z,49.21
2023-05-21T11:05:12.726Z,49.17
2023-05-21T11:07:58.702Z,49.07
2023-05-21T11:10:41.589Z,48.94
2023-05-21T11:13:12.185Z,49.01
2023-05-21T11:15:57.683Z,48.94
2023-05-21T11:18:47.447Z,48.92
2023-05-21T11:21:16.254Z,48.78
2023-05-21T11:24:05.240Z,48.78
2023-05-21T11:26:50.240Z,48.75
2023-05-21T11:29:17.308Z,48.72
2023-05-21T11:31:49.105Z,48.71
2023-05-21T11:34:29.762Z,48.62
2023-05-21T11:37:34.607Z,48.32
2023-05-21T11:40:25.763Z,48.50
2023-05-21T11:42:54.791Z,48.51
2023-05-21T11:45:24.952Z,48.48
2023-05-21T11:47:52.787Z,48.34
2023-05-21T11:50:20.804Z,48.08
2023-05-21T11:52:48.719Z,48.25
2023-05-21T11:55:15.968Z,48.31
2023-05-21T11:57:44.867Z,48.33
2023-05-21T12:00:16.444Z,48.28
2023-05-21T12:02:48.867Z,48.30
2023-05-21T12:05:15.870Z,48.25
2023-05-21T12:07:43.011Z,48.28
2023-05-21T12:10:10.317Z,48.04
2023-05-21T12:12:53.337Z,47.96
2023-05-21T12:15:21.537Z,47.92
2023-05-21T12:17:50.236Z,48.06
2023-05-21T12:20:17.220Z,47.93
2023-05-21T12:22:44.886Z,48.05
2023-05-21T12:25:12.428Z,47.94
2023-05-21T12:27:40.061Z,47.99
2023-05-21T12:30:08.403Z,47.99
2023-05-21T12:32:35.473Z,47.89
2023-05-21T12:35:02.769Z,47.79
2023-05-21T12:37:35.638Z,47.71
2023-05-21T12:40:11.940Z,47.72
2023-05-21T12:42:40.226Z,47.78
2023-05-21T12:45:08.280Z,47.60
2023-05-21T12:47:35.432Z,47.55
2023-05-21T12:50:04.718Z,47.52
2023-05-21T12:52:31.744Z,47.50
2023-05-21T12:54:58.986Z,47.50
2023-05-21T12:57:38.829Z,47.46
2023-05-21T13:00:07.255Z,47.37
2023-05-21T13:02:38.551Z,46.28
2023-05-21T13:05:24.264Z,46.00
2023-05-21T13:07:51.745Z,45.63
2023-05-21T13:10:18.630Z,46.58
2023-05-21T13:12:46.183Z,46.54
2023-05-21T13:15:13.057Z,46.33
2023-05-21T13:17:39.937Z,46.17
2023-05-21T13:20:12.467Z,45.48
2023-05-21T13:22:47.349Z,45.65
2023-05-21T13:25:16.931Z,46.04
2023-05-21T13:27:44.506Z,46.17
2023-05-21T13:30:11.985Z,45.90
2023-05-21T13:32:40.033Z,45.12
2023-05-21T13:35:08.011Z,44.38
2023-05-21T13:37:38.777Z,44.73
2023-05-21T13:40:07.466Z,44.18
2023-05-21T13:42:35.396Z,43.65
2023-05-21T13:45:02.294Z,43.71
2023-05-21T13:47:29.107Z,44.09
2023-05-21T13:49:55.897Z,44.48
2023-05-21T13:52:22.717Z,43.99
2023-05-21T13:54:49.504Z,43.62
2023-05-21T13:57:16.349Z,43.53
2023-05-21T13:59:43.204Z,42.59
2023-05-21T14:02:10.811Z,42.33
2023-05-21T14:04:39.396Z,42.00
2023-05-21T14:07:07.087Z,41.62
2023-05-21T14:09:34.183Z,41.26
2023-05-21T14:12:01.549Z,41.04
2023-05-21T14:14:28.503Z,40.82
2023-05-21T14:16:55.417Z,40.12
2023-05-21T14:19:22.495Z,40.51
2023-05-21T14:21:52.416Z,40.95
2023-05-21T14:24:19.947Z,40.49
2023-05-21T14:26:46.766Z,40.13
2023-05-21T14:29:13.577Z,39.94
2023-05-21T14:31:40.461Z,40.24
2023-05-21T14:34:08.798Z,39.85
2023-05-21T14:36:36.533Z,39.68
2023-05-21T14:39:03.873Z,39.67
2023-05-21T14:41:30.903Z,39.38
2023-05-21T14:43:57.755Z,39.58
2023-05-21T14:46:24.657Z,39.63
2023-05-21T14:48:51.632Z,39.31
2023-05-21T14:51:19.280Z,39.25
2023-05-21T14:53:46.058Z,38.97
2023-05-21T14:56:12.839Z,38.99
2023-05-21T14:58:39.704Z,39.17
2023-05-21T15:01:06.580Z,39.03
2023-05-21T15:03:33.792Z,38.87
2023-05-21T15:06:00.834Z,38.80
2023-05-21T15:08:27.784Z,38.95
2023-05-21T15:10:54.684Z,38.90
2023-05-21T15:13:21.614Z,38.64
2023-05-21T15:15:49.677Z,38.35
2023-05-21T15:18:16.682Z,38.51
2023-05-21T15:20:43.589Z,38.32
2023-05-21T15:23:16.661Z,38.31
2023-05-21T15:25:44.853Z,38.25
2023-05-21T15:28:14.750Z,38.43
2023-05-21T15:30:41.551Z,37.99
2023-05-21T15:33:08.636Z,38.26
2023-05-21T15:35:36.368Z,38.34
2023-05-21T15:38:03.540Z,38.37
2023-05-21T15:40:31.295Z,38.33
2023-05-21T15:42:58.116Z,38.45
2023-05-21T15:45:25.138Z,38.31
2023-05-21T15:47:51.964Z,38.38
2023-05-21T15:50:18.862Z,38.30
2023-05-21T15:52:45.655Z,38.03
2023-05-21T15:55:13.966Z,37.71
2023-05-21T15:57:40.889Z,37.66
2023-05-21T16:00:08.999Z,37.35
2023-05-21T16:02:36.003Z,37.61
2023-05-21T16:05:02.959Z,37.33
2023-05-21T16:07:29.714Z,37.33
2023-05-21T16:09:56.499Z,37.38
2023-05-21T16:12:23.342Z,37.41
2023-05-21T16:14:50.183Z,37.66
2023-05-21T16:17:18.212Z,37.67
2023-05-21T16:19:45.146Z,37.38
2023-05-21T16:22:11.918Z,37.15
2023-05-21T16:24:38.732Z,37.29
2023-05-21T16:27:05.721Z,37.14
2023-05-21T16:29:32.498Z,37.46
2023-05-21T16:31:59.343Z,37.45
2023-05-21T16:34:26.267Z,37.10
2023-05-21T16:36:53.055Z,37.40
2023-05-21T16:39:19.886Z,37.54
2023-05-21T16:41:46.702Z,37.68
2023-05-21T16:44:14.593Z,37.62
2023-05-21T16:46:41.631Z,37.64
2023-05-21T16:49:08.498Z,37.63
2023-05-21T16:51:35.277Z,37.89
2023-05-21T16:54:04.230Z,37.76
2023-05-21T16:56:31.563Z,37.69
2023-05-21T16:58:58.480Z,37.93
2023-05-21T17:01:25.613Z,37.88
2023-05-21T17:03:53.501Z,38.25
2023-05-21T17:06:20.523Z,38.61
2023-05-21T17:08:47.491Z,38.65
2023-05-21T17:11:14.297Z,38.70
2023-05-21T17:13:41.923Z,38.68
2023-05-21T17:16:08.836Z,38.83
2023-05-21T17:18:35.710Z,39.09
2023-05-21T17:21:02.490Z,39.14
2023-05-21T17:23:29.309Z,39.44
2023-05-21T17:25:56.418Z,39.69
2023-05-21T17:28:23.177Z,39.98
2023-05-21T17:30:50.005Z,40.08
2023-05-21T17:33:16.969Z,40.32
2023-05-21T17:35:44.071Z,40.65
2023-05-21T17:38:10.953Z,40.85
2023-05-21T17:40:37.856Z,41.04
2023-05-21T17:43:05.042Z,41.31
2023-05-21T17:45:32.178Z,41.69
2023-05-21T17:48:00.507Z,41.93
2023-05-21T17:50:28.271Z,42.10
2023-05-21T17:52:55.108Z,42.31
2023-05-21T17:55:21.883Z,42.55
2023-05-21T17:57:48.820Z,42.81
2023-05-21T18:00:15.891Z,43.02
2023-05-21T18:02:43.366Z,43.26
2023-05-21T18:05:10.536Z,43.33
2023-05-21T18:07:38.271Z,43.71
2023-05-21T18:10:05.904Z,44.02
2023-05-21T18:12:32.869Z,44.25
2023-05-21T18:15:01.901Z,44.51
2023-05-21T18:17:28.822Z,44.81
2023-05-21T18:19:55.816Z,44.97
2023-05-21T18:22:23.551Z,45.21
2023-05-21T18:24:51.357Z,45.33
2023-05-21T18:27:19.018Z,45.54
2023-05-21T18:29:49.004Z,45.58
2023-05-21T18:32:16.823Z,45.97
2023-05-21T18:34:44.229Z,46.25
2023-05-21T18:37:11.622Z,46.31
2023-05-21T18:39:39.402Z,46.67
2023-05-21T18:42:13.247Z,46.84
2023-05-21T18:44:46.024Z,47.03
2023-05-21T18:47:14.006Z,47.22
2023-05-21T18:49:41.882Z,47.38
2023-05-21T18:52:09.609Z,47.56
2023-05-21T18:54:38.454Z,47.74
2023-05-21T18:57:06.331Z,47.88
2023-05-21T18:59:34.037Z,47.96
2023-05-21T19:02:02.866Z,48.02
2023-05-21T19:04:31.206Z,48.30
2023-05-21T19:06:59.199Z,48.46
2023-05-21T19:09:26.904Z,48.65
2023-05-21T19:11:55.063Z,48.77
2023-05-21T19:14:22.995Z,48.89
2023-05-21T19:16:50.841Z,48.92
2023-05-21T19:19:19.164Z,49.13
2023-05-21T19:21:47.177Z,49.28
2023-05-21T19:24:15.055Z,49.43
2023-05-21T19:26:42.968Z,49.49
2023-05-21T19:29:11.038Z,49.68
2023-05-21T19:31:39.303Z,49.65
2023-05-21T19:34:10.883Z,49.75
2023-05-21T19:36:52.093Z,50.02
2023-05-21T19:39:21.585Z,50.11
2023-05-21T19:41:49.983Z,50.17
2023-05-21T19:44:17.799Z,50.25
2023-05-21T19:46:45.835Z,50.39
2023-05-21T19:49:15.907Z,50.41
2023-05-21T19:51:43.999Z,50.54
2023-05-21T19:54:11.997Z,50.63
2023-05-21T19:56:39.762Z,50.54
2023-05-21T19:59:08.522Z,50.66
2023-05-21T20:01:39.633Z,50.76
2023-05-21T20:04:07.946Z,50.95
2023-05-21T20:06:37.424Z,50.96
2023-05-21T20:09:06.021Z,51.05
2023-05-21T20:11:33.638Z,51.13
2023-05-21T20:14:02.213Z,51.24
2023-05-21T20:16:30.017Z,51.33
2023-05-21T20:18:58.158Z,51.39
2023-05-21T20:21:25.156Z,51.46
2023-05-21T20:23:53.708Z,51.49
2023-05-21T20:26:21.863Z,51.61
2023-05-21T20:28:48.691Z,51.66
2023-05-21T20:31:15.502Z,51.76
2023-05-21T20:33:42.416Z,51.73
2023-05-21T20:36:09.227Z,51.77
2023-05-21T20:38:38.220Z,51.85
2023-05-21T20:41:05.199Z,51.95
2023-05-21T20:43:33.023Z,52.01
2023-05-21T20:46:00.053Z,51.96
2023-05-21T20:48:31.983Z,52.13
2023-05-21T20:51:00.105Z,52.07
2023-05-21T20:53:27.216Z,52.17
2023-05-21T20:55:57.066Z,52.21
2023-05-21T20:58:24.081Z,52.31
2023-05-21T21:00:51.057Z,52.36
2023-05-21T21:03:18.517Z,52.45
2023-05-21T21:05:45.520Z,52.50
2023-05-21T21:08:12.373Z,52.57
2023-05-21T21:10:41.424Z,52.61
2023-05-21T21:13:08.568Z,52.61
2023-05-21T21:15:36.206Z,52.74
2023-05-21T21:18:03.563Z,52.81
2023-05-21T21:20:30.460Z,52.86
2023-05-21T21:22:57.216Z,52.84
2023-05-21T21:25:24.029Z,52.93
2023-05-21T21:27:50.869Z,53.02
2023-05-21T21:30:17.611Z,53.04
2023-05-21T21:32:44.556Z,53.08
2023-05-21T21:35:11.427Z,53.18
2023-05-21T21:37:38.227Z,53.18
2023-05-21T21:40:05.627Z,53.18
2023-05-21T21:42:32.501Z,53.20
2023-05-21T21:44:59.304Z,53.22
2023-05-21T21:47:26.259Z,53.30
2023-05-21T21:49:53.022Z,53.37
2023-05-21T21:52:20.746Z,53.43
2023-05-21T21:54:47.521Z,53.45
2023-05-21T21:57:14.288Z,53.44
2023-05-21T21:59:41.070Z,53.59
2023-05-21T22:02:07.913Z,53.57
2023-05-21T22:04:34.755Z,53.62
2023-05-21T22:07:01.810Z,53.66
2023-05-21T22:09:28.679Z,53.69
2023-05-21T22:11:55.683Z,53.67
2023-05-21T22:14:22.727Z,53.67
2023-05-21T22:16:49.617Z,53.70
2023-05-21T22:19:20.581Z,53.79
2023-05-21T22:21:47.952Z,53.86
2023-05-21T22:24:31.015Z,53.91
2023-05-21T22:26:58.636Z,53.95
2023-05-21T22:29:25.608Z,54.04
2023-05-21T22:31:52.500Z,54.13
2023-05-21T22:34:19.267Z,54.18
2023-05-21T22:36:47.059Z,54.13
2023-05-21T22:39:14.187Z,54.16
2023-05-21T22:41:41.223Z,54.16
2023-05-21T22:44:08.029Z,54.22
2023-05-21T22:46:35.569Z,54.24
2023-05-21T22:49:03.025Z,54.18
2023-05-21T22:51:34.757Z,54.21
2023-05-21T22:54:01.918Z,54.26
2023-05-21T22:56:29.054Z,54.35
2023-05-21T22:58:56.755Z,54.33
2023-05-21T23:01:23.906Z,54.38
2023-05-21T23:03:51.381Z,54.38
2023-05-21T23:06:18.400Z,54.37
2023-05-21T23:08:45.260Z,54.44
2023-05-21T23:11:12.102Z,54.48
2023-05-21T23:13:38.911Z,54.52
2023-05-21T23:16:06.746Z,54.56
2023-05-21T23:18:35.068Z,54.65
2023-05-21T23:21:02.252Z,54.71
2023-05-21T23:23:29.167Z,54.73
2023-05-21T23:25:57.769Z,54.86
2023-05-21T23:28:25.558Z,54.83
2023-05-21T23:30:52.778Z,54.93
2023-05-21T23:33:19.716Z,54.89
2023-05-21T23:35:46.484Z,54.88
2023-05-21T23:38:13.361Z,54.84
2023-05-21T23:40:40.261Z,54.83
2023-05-21T23:43:07.484Z,54.88
2023-05-21T23:45:34.280Z,54.93
2023-05-21T23:48:01.083Z,54.95
2023-05-21T23:50:27.899Z,55.01
2023-05-21T23:52:54.803Z,54.97
2023-05-21T23:55:21.580Z,55.08
2023-05-21T23:57:48.396Z,55.10
